createdAt,value
2022-12-19T00:00:07.650Z,34.50
2022-12-19T00:02:39.097Z,36.10
2022-12-19T00:05:06.456Z,32.03
2022-12-19T00:07:33.305Z,33.73
2022-12-19T00:09:59.955Z,32.80
2022-12-19T00:12:26.487Z,32.80
2022-12-19T00:14:53.065Z,32.43
2022-12-19T00:17:19.648Z,35.10
2022-12-19T00:19:46.400Z,34.50
2022-12-19T00:22:12.993Z,35.17
2022-12-19T00:24:39.874Z,35.53
2022-12-19T00:27:06.615Z,35.07
2022-12-19T00:29:33.319Z,31.80
2022-12-19T00:31:59.932Z,36.57
2022-12-19T00:34:26.629Z,36.70
2022-12-19T00:36:53.137Z,36.40
2022-12-19T00:39:19.774Z,35.63
2022-12-19T00:41:46.294Z,32.87
2022-12-19T00:44:14.495Z,37.90
2022-12-19T00:46:41.894Z,36.57
2022-12-19T00:49:09.974Z,34.17
2022-12-19T00:51:37.727Z,32.93
2022-12-19T00:54:07.371Z,33.67
2022-12-19T00:56:37.375Z,39.13
2022-12-19T00:59:05.156Z,31.40
2022-12-19T01:01:34.842Z,36.30
2022-12-19T01:04:27.669Z,36.73
2022-12-19T01:06:52.002Z,39.10
2022-12-19T01:09:19.167Z,35.27
2022-12-19T01:12:04.213Z,33.57
2022-12-19T01:14:30.767Z,33.87
2022-12-19T01:16:57.353Z,37.23
2022-12-19T01:19:24.206Z,33.33
2022-12-19T01:21:50.760Z,37.13
2022-12-19T01:24:18.895Z,40.33
2022-12-19T01:26:46.097Z,39.97
2022-12-19T01:29:12.620Z,37.33
2022-12-19T01:31:39.198Z,38.53
2022-12-19T01:34:08.238Z,39.60
2022-12-19T01:36:39.595Z,35.00
2022-12-19T01:39:06.539Z,36.53
2022-12-19T01:41:33.228Z,36.13
2022-12-19T01:44:08.735Z,39.07
2022-12-19T01:46:54.166Z,38.47
2022-12-19T01:49:32.165Z,36.20
2022-12-19T01:52:06.434Z,38.07
2022-12-19T01:54:40.547Z,37.67
2022-12-19T01:57:13.973Z,40.60
2022-12-19T01:59:54.390Z,33.13
2022-12-19T02:02:28.334Z,38.67
2022-12-19T02:04:54.978Z,39.93
2022-12-19T02:07:24.181Z,37.47
2022-12-19T02:09:56.720Z,36.77
2022-12-19T02:12:25.802Z,32.33
2022-12-19T02:14:54.103Z,36.83
2022-12-19T02:17:35.625Z,40.43
2022-12-19T02:20:39.872Z,33.23
2022-12-19T02:23:33.379Z,35.67
2022-12-19T02:26:32.401Z,37.33
2022-12-19T02:29:16.663Z,37.63
2022-12-19T02:31:49.063Z,35.07
2022-12-19T02:34:21.729Z,34.37
2022-12-19T02:37:28.120Z,32.93
2022-12-19T02:40:11.884Z,30.67
2022-12-19T02:42:43.991Z,34.97
2022-12-19T02:45:15.623Z,34.00
2022-12-19T02:47:52.022Z,34.73
2022-12-19T02:50:19.018Z,34.30
2022-12-19T02:52:47.310Z,34.67
2022-12-19T02:55:21.581Z,32.67
2022-12-19T02:57:50.964Z,35.77
2022-12-19T03:00:20.662Z,31.80
2022-12-19T03:03:07.454Z,31.13
2022-12-19T03:05:34.064Z,36.40
2022-12-19T03:08:26.491Z,34.40
2022-12-19T03:10:59.048Z,30.83
2022-12-19T03:13:47.397Z,29.90
2022-12-19T03:16:14.811Z,32.57
2022-12-19T03:18:42.383Z,37.47
2022-12-19T03:21:20.551Z,33.23
2022-12-19T03:23:50.119Z,32.87
2022-12-19T03:26:20.011Z,32.67
2022-12-19T03:29:03.798Z,30.80
2022-12-19T03:31:33.325Z,30.10
2022-12-19T03:34:08.745Z,34.93
2022-12-19T03:36:41.674Z,32.70
2022-12-19T03:39:11.397Z,34.77
2022-12-19T03:41:58.177Z,30.60
2022-12-19T03:44:28.672Z,32.37
2022-12-19T03:47:03.571Z,28.53
2022-12-19T03:49:30.463Z,34.03
2022-12-19T03:52:10.843Z,33.63
2022-12-19T03:54:42.349Z,30.97
2022-12-19T03:57:34.186Z,33.77
2022-12-19T04:00:06.375Z,34.87
2022-12-19T04:02:38.185Z,30.70
2022-12-19T04:05:08.910Z,30.00
2022-12-19T04:07:37.668Z,31.30
2022-12-19T04:10:11.541Z,33.33
2022-12-19T04:12:42.902Z,34.60
2022-12-19T04:15:10.070Z,33.13
2022-12-19T04:17:57.887Z,34.77
2022-12-19T04:20:28.942Z,31.43
2022-12-19T04:23:34.759Z,31.40
2022-12-19T04:26:04.617Z,35.13
2022-12-19T04:28:42.046Z,31.20
2022-12-19T04:31:13.263Z,36.23
2022-12-19T04:33:39.803Z,33.37
2022-12-19T04:36:06.865Z,38.30
2022-12-19T04:38:33.610Z,34.93
2022-12-19T04:41:00.596Z,38.70
2022-12-19T04:43:27.209Z,38.60
2022-12-19T04:45:57.305Z,39.03
2022-12-19T04:48:24.013Z,41.33
2022-12-19T04:50:50.554Z,40.43
2022-12-19T04:53:17.263Z,42.67
2022-12-19T04:55:44.331Z,39.37
2022-12-19T04:58:11.491Z,38.80
2022-12-19T05:00:38.796Z,39.83
2022-12-19T05:03:05.451Z,42.80
2022-12-19T05:05:32.067Z,42.47
2022-12-19T05:07:58.657Z,42.37
2022-12-19T05:10:25.455Z,39.63
2022-12-19T05:12:54.452Z,45.13
2022-12-19T05:15:21.013Z,47.37
2022-12-19T05:17:47.526Z,44.57
2022-12-19T05:20:16.379Z,48.70
2022-12-19T05:22:42.887Z,54.53
2022-12-19T05:25:09.873Z,50.33
2022-12-19T05:27:36.428Z,56.00
2022-12-19T05:30:03.434Z,47.03
2022-12-19T05:32:32.123Z,50.97
2022-12-19T05:34:58.773Z,49.93
2022-12-19T05:37:25.438Z,46.23
2022-12-19T05:39:51.989Z,52.77
2022-12-19T05:42:18.618Z,54.80
2022-12-19T05:44:45.230Z,56.23
2022-12-19T05:47:11.791Z,47.40
2022-12-19T05:49:41.374Z,50.80
2022-12-19T05:52:07.904Z,48.20
2022-12-19T05:54:34.875Z,46.93
2022-12-19T05:57:01.626Z,57.97
2022-12-19T05:59:28.206Z,45.30
2022-12-19T06:01:55.045Z,39.63
2022-12-19T06:04:21.797Z,47.57
2022-12-19T06:06:48.372Z,43.40
2022-12-19T06:09:14.977Z,48.70
2022-12-19T06:11:41.808Z,43.00
2022-12-19T06:14:08.525Z,42.80
2022-12-19T06:16:35.183Z,47.63
2022-12-19T06:19:01.907Z,49.47
2022-12-19T06:21:28.509Z,49.73
2022-12-19T06:23:55.098Z,44.43
2022-12-19T06:26:22.754Z,43.90
2022-12-19T06:28:54.768Z,46.50
2022-12-19T06:31:23.851Z,50.83
2022-12-19T06:33:52.019Z,41.43
2022-12-19T06:36:44.574Z,53.00
2022-12-19T06:39:14.394Z,47.57
2022-12-19T06:42:00.239Z,41.00
2022-12-19T06:44:26.787Z,48.80
2022-12-19T06:46:54.293Z,45.17
2022-12-19T06:49:21.153Z,46.57
2022-12-19T06:51:47.833Z,48.03
2022-12-19T06:54:14.712Z,53.10
2022-12-19T06:56:44.145Z,47.20
2022-12-19T06:59:15.811Z,50.07
2022-12-19T07:01:42.965Z,41.50
2022-12-19T07:04:11.969Z,51.87
2022-12-19T07:06:39.199Z,44.57
2022-12-19T07:09:06.561Z,52.67
2022-12-19T07:11:33.128Z,50.23
2022-12-19T07:13:59.569Z,49.97
2022-12-19T07:16:27.544Z,42.77
2022-12-19T07:18:54.306Z,44.07
2022-12-19T07:21:20.939Z,46.93
2022-12-19T07:23:47.419Z,43.67
2022-12-19T07:26:13.914Z,48.60
2022-12-19T07:28:40.513Z,38.80
2022-12-19T07:31:06.973Z,43.10
2022-12-19T07:33:33.779Z,40.07
2022-12-19T07:36:00.480Z,41.57
2022-12-19T07:38:26.953Z,42.73
2022-12-19T07:40:53.472Z,37.43
2022-12-19T07:43:20.076Z,42.37
2022-12-19T07:45:46.613Z,41.10
2022-12-19T07:48:13.248Z,39.53
2022-12-19T07:50:40.709Z,37.50
2022-12-19T07:53:07.161Z,44.73
2022-12-19T07:55:33.679Z,38.80
2022-12-19T07:58:00.522Z,41.63
2022-12-19T08:00:27.046Z,40.73
2022-12-19T08:02:53.721Z,41.77
2022-12-19T08:05:20.430Z,41.63
2022-12-19T08:07:46.889Z,41.70
2022-12-19T08:10:15.002Z,38.23
2022-12-19T08:12:42.294Z,38.67
2022-12-19T08:15:09.435Z,37.10
2022-12-19T08:17:38.727Z,41.07
2022-12-19T08:20:08.108Z,41.73
2022-12-19T08:22:34.954Z,45.30
2022-12-19T08:25:01.425Z,40.53
2022-12-19T08:27:27.941Z,43.77
2022-12-19T08:29:54.438Z,34.60
2022-12-19T08:32:22.022Z,40.30
2022-12-19T08:34:49.926Z,44.10
2022-12-19T08:37:16.833Z,51.87
2022-12-19T08:39:43.403Z,42.67
2022-12-19T08:42:09.916Z,47.77
2022-12-19T08:44:36.414Z,36.27
2022-12-19T08:47:02.923Z,35.40
2022-12-19T08:49:29.413Z,36.87
2022-12-19T08:51:56.130Z,44.53
2022-12-19T08:54:22.683Z,36.27
2022-12-19T08:56:49.191Z,38.47
2022-12-19T08:59:21.119Z,36.27
2022-12-19T09:01:58.732Z,33.83
2022-12-19T09:06:02.643Z,34.80
2022-12-19T09:07:15.675Z,34.10
2022-12-19T09:09:42.693Z,36.50
2022-12-19T09:12:09.216Z,37.93
2022-12-19T09:14:36.306Z,37.07
2022-12-19T09:17:03.956Z,33.93
2022-12-19T09:19:31.692Z,35.07
2022-12-19T09:21:58.479Z,33.80
2022-12-19T09:24:24.960Z,36.33
2022-12-19T09:26:51.445Z,36.73
2022-12-19T09:29:20.908Z,29.50
2022-12-19T09:31:55.794Z,30.53
2022-12-19T09:34:31.767Z,34.23
2022-12-19T09:37:07.261Z,34.90
2022-12-19T09:39:35.578Z,34.03
2022-12-19T09:42:20.885Z,35.27
2022-12-19T09:45:04.285Z,31.13
2022-12-19T09:47:38.081Z,33.10
2022-12-19T09:50:22.932Z,30.10
2022-12-19T09:52:58.284Z,33.43
2022-12-19T09:55:40.609Z,32.30
2022-12-19T09:58:13.899Z,30.43
2022-12-19T10:00:44.690Z,31.20
2022-12-19T10:03:42.391Z,32.70
2022-12-19T10:07:07.708Z,28.63
2022-12-19T10:10:01.037Z,29.13
2022-12-19T10:12:39.411Z,28.87
2022-12-19T10:15:27.634Z,28.27
2022-12-19T10:18:15.609Z,35.87
2022-12-19T10:20:49.753Z,32.83
2022-12-19T10:23:42.463Z,30.90
2022-12-19T10:26:29.944Z,29.30
2022-12-19T10:29:14.723Z,33.93
2022-12-19T10:32:11.437Z,31.23
2022-12-19T10:34:42.239Z,29.43
2022-12-19T10:37:40.930Z,30.50
2022-12-19T10:40:20.011Z,32.07
2022-12-19T10:43:02.640Z,36.63
2022-12-19T10:45:46.875Z,25.80
2022-12-19T10:48:20.898Z,30.50
2022-12-19T10:50:52.270Z,28.27
2022-12-19T10:53:28.420Z,31.00
2022-12-19T10:56:00.701Z,26.80
2022-12-19T10:58:28.357Z,25.93
2022-12-19T11:01:10.141Z,25.67
2022-12-19T11:03:38.803Z,26.87
2022-12-19T11:06:06.607Z,23.90
2022-12-19T11:08:37.672Z,24.97
2022-12-19T11:14:29.789Z,26.90
2022-12-19T11:18:22.777Z,25.30
2022-12-19T11:22:18.800Z,26.10
2022-12-19T11:29:25.267Z,24.70
2022-12-19T11:29:37.952Z,24.83
2022-12-19T11:29:44.095Z,27.03
2022-12-19T11:29:45.795Z,23.83
2022-12-19T11:34:06.365Z,24.47
2022-12-19T11:36:49.622Z,29.93
2022-12-19T11:39:23.607Z,26.83
2022-12-19T11:42:20.086Z,29.17
2022-12-19T11:44:50.673Z,22.00
2022-12-19T11:47:26.285Z,22.53
2022-12-19T11:50:00.167Z,26.77
2022-12-19T11:53:04.463Z,26.40
2022-12-19T11:55:54.507Z,24.13
2022-12-19T11:58:24.190Z,23.57
2022-12-19T12:01:44.355Z,26.10
2022-12-19T12:04:44.433Z,23.60
2022-12-19T12:08:22.534Z,22.33
2022-12-19T12:15:10.232Z,21.47
2022-12-19T12:24:15.937Z,21.17
2022-12-19T12:26:03.331Z,23.03
2022-12-19T12:31:16.376Z,22.63
2022-12-19T12:31:16.639Z,20.43
2022-12-19T12:31:52.576Z,18.60
2022-12-19T12:32:02.054Z,20.50
2022-12-19T12:35:46.388Z,19.03
2022-12-19T12:40:39.437Z,19.53
2022-12-19T12:43:44.015Z,16.87
2022-12-19T12:46:20.302Z,19.03
2022-12-19T12:48:51.750Z,21.37
2022-12-19T12:51:18.741Z,18.03
2022-12-19T12:53:46.753Z,19.83
2022-12-19T12:56:16.474Z,19.53
2022-12-19T12:58:48.853Z,17.03
2022-12-19T13:01:26.001Z,18.20
2022-12-19T13:03:59.419Z,16.50
2022-12-19T13:06:46.193Z,16.03
2022-12-19T13:09:28.118Z,17.87
2022-12-19T13:12:22.788Z,15.83
2022-12-19T13:14:50.920Z,16.57
2022-12-19T13:17:32.907Z,17.23
2022-12-19T13:20:27.653Z,19.83
2022-12-19T13:23:00.434Z,17.10
2022-12-19T13:25:26.910Z,15.30
2022-12-19T13:28:01.444Z,16.60
2022-12-19T13:30:46.700Z,16.30
2022-12-19T13:33:22.136Z,18.67
2022-12-19T13:39:37.595Z,15.40
2022-12-19T13:40:01.589Z,13.23
2022-12-19T13:42:00.005Z,13.60
2022-12-19T13:44:26.720Z,14.10
2022-12-19T13:46:55.984Z,15.07
2022-12-19T13:49:34.878Z,17.93
2022-12-19T13:52:02.945Z,13.60
2022-12-19T13:54:45.567Z,16.60
2022-12-19T13:57:23.040Z,13.80
2022-12-19T13:59:59.960Z,12.33
2022-12-19T14:02:33.095Z,14.53
2022-12-19T14:05:33.781Z,12.43
2022-12-19T14:08:16.842Z,13.27
2022-12-19T14:11:35.050Z,13.47
2022-12-19T14:14:08.168Z,15.03
2022-12-19T14:16:44.753Z,13.23
2022-12-19T14:19:24.080Z,13.97
2022-12-19T14:22:09.748Z,13.63
2022-12-19T14:24:37.649Z,12.07
2022-12-19T14:28:24.645Z,13.07
2022-12-19T14:30:27.323Z,15.20
2022-12-19T14:33:44.122Z,12.43
2022-12-19T14:36:07.557Z,11.63
2022-12-19T14:39:24.815Z,12.57
2022-12-19T14:41:46.733Z,11.80
2022-12-19T14:51:51.824Z,13.40
2022-12-19T14:53:52.728Z,14.37
2022-12-19T14:54:17.514Z,12.10
2022-12-19T14:54:21.709Z,11.13
2022-12-19T14:56:02.118Z,13.37
2022-12-19T14:58:53.700Z,14.20
2022-12-19T15:01:25.922Z,12.03
2022-12-19T15:04:52.057Z,12.43
2022-12-19T15:07:08.677Z,15.03
2022-12-19T15:11:08.582Z,13.73
2022-12-19T15:14:50.942Z,12.87
2022-12-19T15:15:48.364Z,11.33
2022-12-19T15:18:23.899Z,12.23
2022-12-19T15:20:52.114Z,13.47
2022-12-19T15:23:22.268Z,11.13
2022-12-19T15:26:07.344Z,12.63
2022-12-19T15:28:49.903Z,13.40
2022-12-19T15:31:32.262Z,11.57
2022-12-19T15:34:32.840Z,10.87
2022-12-19T15:36:45.913Z,12.43
2022-12-19T15:39:12.455Z,10.00
2022-12-19T15:41:38.993Z,10.20
2022-12-19T15:44:36.890Z,10.97
2022-12-19T15:47:06.431Z,10.77
2022-12-19T15:49:35.081Z,11.10
2022-12-19T15:52:03.080Z,12.97
2022-12-19T15:57:26.233Z,11.40
2022-12-19T15:59:53.165Z,11.67
2022-12-19T16:02:25.403Z,9.97
2022-12-19T16:04:55.558Z,9.73
2022-12-19T16:07:26.540Z,8.57
2022-12-19T16:09:53.146Z,10.67
2022-12-19T16:12:27.100Z,11.37
2022-12-19T16:14:57.616Z,10.77
2022-12-19T16:17:26.250Z,9.13
2022-12-19T16:19:52.828Z,9.63
2022-12-19T16:22:22.845Z,10.90
2022-12-19T16:24:51.441Z,9.93
2022-12-19T16:27:26.824Z,9.83
2022-12-19T16:29:54.863Z,11.93
2022-12-19T16:32:25.691Z,8.57
2022-12-19T16:34:53.228Z,10.43
2022-12-19T16:37:19.785Z,8.77
2022-12-19T16:39:46.255Z,9.53
2022-12-19T16:42:15.924Z,9.40
2022-12-19T16:44:43.824Z,9.90
2022-12-19T16:47:15.158Z,11.27
2022-12-19T16:49:41.875Z,8.83
2022-12-19T16:52:08.629Z,11.00
2022-12-19T16:54:35.110Z,9.83
2022-12-19T16:57:06.649Z,9.27
2022-12-19T16:59:36.000Z,9.77
2022-12-19T17:02:03.272Z,11.37
2022-12-19T17:04:30.164Z,10.37
2022-12-19T17:06:56.752Z,10.63
2022-12-19T17:09:24.790Z,9.90
2022-12-19T17:12:01.053Z,7.60
2022-12-19T17:14:31.882Z,9.40
2022-12-19T17:16:59.331Z,10.73
2022-12-19T17:19:26.012Z,10.90
2022-12-19T17:21:52.981Z,10.63
2022-12-19T17:24:20.019Z,10.17
2022-12-19T17:26:47.162Z,9.43
2022-12-19T17:29:14.101Z,10.60
2022-12-19T17:31:41.519Z,11.30
2022-12-19T17:34:40.662Z,14.10
2022-12-19T17:37:14.771Z,10.77
2022-12-19T17:39:42.307Z,10.43
2022-12-19T17:42:22.973Z,12.03
2022-12-19T17:44:49.501Z,9.90
2022-12-19T17:47:19.727Z,10.90
2022-12-19T17:49:48.140Z,9.27
2022-12-19T17:52:17.572Z,11.97
2022-12-19T17:54:44.653Z,14.60
2022-12-19T17:57:16.000Z,11.70
2022-12-19T17:59:42.546Z,9.87
2022-12-19T18:02:20.761Z,8.40
2022-12-19T18:04:47.675Z,13.03
2022-12-19T18:07:18.001Z,10.57
2022-12-19T18:09:45.019Z,11.53
2022-12-19T18:12:11.630Z,14.33
2022-12-19T18:14:38.242Z,9.90
2022-12-19T18:17:05.366Z,8.73
2022-12-19T18:19:34.161Z,10.33
2022-12-19T18:22:00.668Z,10.60
2022-12-19T18:24:29.714Z,10.10
2022-12-19T18:26:56.222Z,12.90
2022-12-19T18:29:22.891Z,13.23
2022-12-19T18:31:51.236Z,11.10
2022-12-19T18:34:20.845Z,10.87
2022-12-19T18:36:48.253Z,10.70
2022-12-19T18:39:24.099Z,10.57
2022-12-19T18:41:51.210Z,9.30
2022-12-19T18:44:17.927Z,9.57
2022-12-19T18:46:45.449Z,10.77
2022-12-19T18:49:14.191Z,10.17
2022-12-19T18:51:40.770Z,7.90
2022-12-19T18:54:19.628Z,10.80
2022-12-19T18:56:46.201Z,9.97
2022-12-19T18:59:12.721Z,10.77
2022-12-19T19:01:42.650Z,11.53
2022-12-19T19:04:12.218Z,10.10
2022-12-19T19:06:40.304Z,9.13
2022-12-19T19:09:16.024Z,9.37
2022-12-19T19:11:42.581Z,8.37
2022-12-19T19:14:09.716Z,10.67
2022-12-19T19:16:39.926Z,10.73
2022-12-19T19:19:10.039Z,10.80
2022-12-19T19:21:37.273Z,7.93
2022-12-19T19:24:16.627Z,9.23
2022-12-19T19:26:43.197Z,11.13
2022-12-19T19:29:09.860Z,10.30
2022-12-19T19:31:40.831Z,11.30
2022-12-19T19:34:15.585Z,9.37
2022-12-19T19:36:46.345Z,7.37
2022-12-19T19:39:14.084Z,8.50
2022-12-19T19:41:40.623Z,8.17
2022-12-19T19:44:07.472Z,7.87
2022-12-19T19:46:33.996Z,6.60
2022-12-19T19:49:00.480Z,10.17
2022-12-19T19:51:29.046Z,9.90
2022-12-19T19:53:55.905Z,7.20
2022-12-19T19:56:22.486Z,5.90
2022-12-19T19:58:49.019Z,10.03
2022-12-19T20:01:15.673Z,8.00
2022-12-19T20:03:44.838Z,6.33
2022-12-19T20:06:12.176Z,8.13
2022-12-19T20:08:40.264Z,6.93
2022-12-19T20:11:08.366Z,7.53
2022-12-19T20:13:35.346Z,8.23
2022-12-19T20:16:08.447Z,10.17
2022-12-19T20:18:35.974Z,7.83
2022-12-19T20:21:04.725Z,7.73
2022-12-19T20:23:34.390Z,8.30
2022-12-19T20:26:05.072Z,9.67
2022-12-19T20:28:31.801Z,7.97
2022-12-19T20:30:58.609Z,6.50
2022-12-19T20:33:25.510Z,6.97
2022-12-19T20:35:56.896Z,6.63
2022-12-19T20:38:23.800Z,6.67
2022-12-19T20:40:55.884Z,6.50
2022-12-19T20:43:23.893Z,6.50
2022-12-19T20:45:51.032Z,8.23
2022-12-19T20:48:18.580Z,9.70
2022-12-19T20:50:45.049Z,6.53
2022-12-19T20:53:11.593Z,9.13
2022-12-19T20:55:38.093Z,7.23
2022-12-19T20:58:04.634Z,12.20
2022-12-19T21:00:31.079Z,5.63
2022-12-19T21:03:27.196Z,10.87
2022-12-19T21:05:44.832Z,7.13
2022-12-19T21:08:11.365Z,8.33
2022-12-19T21:10:38.029Z,7.83
2022-12-19T21:13:04.549Z,6.97
2022-12-19T21:15:31.455Z,6.43
2022-12-19T21:17:58.007Z,5.83
2022-12-19T21:20:33.913Z,8.10
2022-12-19T21:23:01.211Z,10.70
2022-12-19T21:25:27.885Z,7.20
2022-12-19T21:27:54.393Z,7.17
2022-12-19T21:30:21.060Z,7.03
2022-12-19T21:32:47.603Z,8.63
2022-12-19T21:35:14.115Z,6.47
2022-12-19T21:37:43.715Z,5.67
2022-12-19T21:40:10.922Z,8.90
2022-12-19T21:42:37.397Z,8.30
2022-12-19T21:45:04.168Z,8.53
2022-12-19T21:47:30.656Z,6.60
2022-12-19T21:49:57.115Z,7.83
2022-12-19T21:52:23.606Z,7.23
2022-12-19T21:54:50.263Z,5.57
2022-12-19T21:57:16.759Z,7.87
2022-12-19T21:59:43.331Z,5.73
2022-12-19T22:02:10.749Z,6.20
2022-12-19T22:04:37.291Z,6.83
2022-12-19T22:07:05.128Z,5.80
2022-12-19T22:09:32.010Z,6.93
2022-12-19T22:11:58.482Z,4.83
2022-12-19T22:14:25.515Z,6.67
2022-12-19T22:16:52.260Z,8.17
2022-12-19T22:19:19.555Z,4.53
2022-12-19T22:21:47.240Z,5.00
2022-12-19T22:24:16.369Z,4.73
2022-12-19T22:26:43.274Z,7.47
2022-12-19T22:29:14.671Z,4.80
2022-12-19T22:31:41.458Z,9.67
2022-12-19T22:34:13.233Z,6.90
2022-12-19T22:36:41.419Z,6.80
2022-12-19T22:39:19.664Z,6.60
2022-12-19T22:41:46.919Z,6.50
2022-12-19T22:44:20.288Z,5.43
2022-12-19T22:46:47.136Z,6.70
2022-12-19T22:49:14.304Z,4.93
2022-12-19T22:51:41.454Z,5.53
2022-12-19T22:54:08.314Z,4.70
2022-12-19T22:56:36.935Z,7.53
2022-12-19T22:59:06.460Z,5.20
2022-12-19T23:01:37.224Z,5.47
2022-12-19T23:04:05.392Z,4.03
2022-12-19T23:06:34.418Z,5.80
2022-12-19T23:09:01.683Z,4.07
2022-12-19T23:11:32.346Z,6.77
2022-12-19T23:14:00.547Z,5.73
2022-12-19T23:16:27.165Z,7.63
2022-12-19T23:18:53.779Z,4.93
2022-12-19T23:21:22.847Z,5.93
2022-12-19T23:23:52.159Z,4.83
2022-12-19T23:26:28.092Z,4.57
2022-12-19T23:29:00.623Z,4.97
2022-12-19T23:31:28.395Z,6.00
2022-12-19T23:33:55.829Z,5.03
2022-12-19T23:36:44.998Z,6.83
2022-12-19T23:39:11.198Z,4.03
2022-12-19T23:41:38.381Z,5.07
2022-12-19T23:44:05.272Z,5.53
2022-12-19T23:46:32.021Z,5.70
2022-12-19T23:48:58.572Z,4.47
2022-12-19T23:51:27.211Z,4.00
2022-12-19T23:53:55.493Z,4.43
2022-12-19T23:56:24.554Z,4.53
2022-12-19T23:58:51.650Z,4.13
